createdAt,value
2018-02-22T00:01:01.324Z,51.40
2018-02-22T00:02:05.533Z,49.75
2018-02-22T00:03:09.726Z,45.25
2018-02-22T00:04:14.218Z,43.55
2018-02-22T00:05:18.571Z,50.10
2018-02-22T00:06:22.892Z,60.38
2018-02-22T00:07:27.156Z,43.90
2018-02-22T00:08:31.391Z,48.42
2018-02-22T00:09:36.353Z,50.90
2018-02-22T00:10:40.558Z,46.83
2018-02-22T00:11:45.183Z,45.83
2018-02-22T00:12:49.647Z,50.40
2018-02-22T00:13:55.092Z,47.35
2018-02-22T00:14:59.313Z,44.05
2018-02-22T00:16:04.311Z,45.53
2018-02-22T00:17:08.492Z,52.45
2018-02-22T00:18:12.774Z,46.10
2018-02-22T00:19:17.516Z,44.97
2018-02-22T00:20:21.819Z,52.38
2018-02-22T00:21:26.095Z,41.65
2018-02-22T00:22:30.271Z,46.13
2018-02-22T00:23:34.447Z,45.60
2018-02-22T00:24:39.406Z,42.38
2018-02-22T00:25:43.916Z,45.05
2018-02-22T00:26:48.703Z,46.47
2018-02-22T00:27:54.175Z,47.65
2018-02-22T00:28:58.366Z,47.88
2018-02-22T00:30:02.547Z,42.62
2018-02-22T00:31:06.767Z,40.90
2018-02-22T00:32:10.997Z,51.53
2018-02-22T00:33:15.821Z,44.60
2018-02-22T00:34:20.180Z,43.87
2018-02-22T00:35:24.484Z,49.20
2018-02-22T00:36:28.698Z,47.90
2018-02-22T00:37:32.948Z,41.25
2018-02-22T00:38:38.653Z,50.83
2018-02-22T00:39:43.175Z,45.55
2018-02-22T00:40:48.301Z,52.35
2018-02-22T00:41:53.957Z,46.70
2018-02-22T00:42:58.208Z,45.97
2018-02-22T00:44:03.195Z,49.92
2018-02-22T00:45:07.413Z,45.90
2018-02-22T00:46:12.038Z,44.35
2018-02-22T00:47:17.123Z,49.20
2018-02-22T00:48:21.456Z,41.03
2018-02-22T00:49:25.783Z,48.85
2018-02-22T00:50:29.981Z,44.58
2018-02-22T00:51:34.164Z,41.97
2018-02-22T00:52:39.105Z,45.35
2018-02-22T00:53:43.484Z,43.53
2018-02-22T00:54:47.873Z,45.47
2018-02-22T00:55:52.133Z,43.83
2018-02-22T00:56:57.154Z,44.45
2018-02-22T00:58:02.124Z,43.47
2018-02-22T00:59:06.337Z,46.65
2018-02-22T01:00:10.541Z,42.40
2018-02-22T01:01:16.243Z,38.40
2018-02-22T01:02:21.280Z,39.95
2018-02-22T01:03:25.525Z,41.30
2018-02-22T01:04:29.716Z,42.92
2018-02-22T01:05:33.916Z,46.50
2018-02-22T01:06:38.889Z,40.72
2018-02-22T01:07:43.284Z,39.90
2018-02-22T01:08:47.627Z,38.40
2018-02-22T01:09:51.867Z,41.78
2018-02-22T01:10:56.854Z,42.42
2018-02-22T01:12:01.055Z,42.38
2018-02-22T01:13:05.321Z,42.58
2018-02-22T01:14:09.523Z,44.35
2018-02-22T01:15:13.883Z,42.88
2018-02-22T01:16:18.220Z,43.17
2018-02-22T01:17:22.791Z,34.03
2018-02-22T01:18:27.813Z,44.08
2018-02-22T01:19:32.013Z,42.13
2018-02-22T01:20:36.214Z,39.03
2018-02-22T01:21:40.395Z,44.22
2018-02-22T01:22:44.738Z,40.15
2018-02-22T01:23:49.772Z,43.70
2018-02-22T01:24:54.090Z,43.00
2018-02-22T01:25:58.300Z,38.63
2018-02-22T01:27:02.515Z,41.70
2018-02-22T01:28:06.706Z,40.75
2018-02-22T01:29:11.042Z,36.28
2018-02-22T01:30:15.436Z,43.83
2018-02-22T01:31:20.083Z,43.67
2018-02-22T01:32:25.084Z,41.05
2018-02-22T01:33:29.294Z,40.35
2018-02-22T01:34:33.502Z,43.28
2018-02-22T01:35:37.775Z,45.70
2018-02-22T01:36:42.063Z,41.85
2018-02-22T01:37:46.368Z,40.45
2018-02-22T01:38:51.382Z,41.65
2018-02-22T01:39:55.586Z,40.95
2018-02-22T01:40:59.828Z,38.13
2018-02-22T01:42:04.819Z,41.42
2018-02-22T01:43:09.012Z,49.20
2018-02-22T01:44:13.800Z,42.88
2018-02-22T01:45:18.031Z,42.92
2018-02-22T01:46:22.297Z,41.40
2018-02-22T01:47:26.578Z,46.17
2018-02-22T01:48:30.774Z,40.03
2018-02-22T01:49:34.955Z,39.08
2018-02-22T01:50:39.942Z,39.83
2018-02-22T01:51:44.261Z,43.55
2018-02-22T01:52:48.500Z,41.90
2018-02-22T01:53:53.500Z,40.67
2018-02-22T01:54:57.697Z,41.37
2018-02-22T01:56:01.889Z,45.63
2018-02-22T01:57:06.101Z,42.75
2018-02-22T01:58:10.312Z,39.33
2018-02-22T01:59:14.907Z,40.40
2018-02-22T02:00:19.135Z,42.10
2018-02-22T02:01:23.404Z,44.30
2018-02-22T02:02:27.727Z,48.95
2018-02-22T02:03:31.919Z,50.67
2018-02-22T02:04:37.624Z,48.40
2018-02-22T02:05:42.328Z,46.37
2018-02-22T02:06:46.713Z,41.55
2018-02-22T02:07:51.789Z,47.30
2018-02-22T02:08:56.016Z,41.70
2018-02-22T02:10:00.232Z,43.63
2018-02-22T02:11:04.432Z,46.03
2018-02-22T02:12:08.620Z,52.72
2018-02-22T02:13:13.145Z,42.33
2018-02-22T02:14:18.074Z,45.60
2018-02-22T02:15:22.395Z,39.83
2018-02-22T02:16:26.638Z,40.15
2018-02-22T02:17:30.846Z,45.72
2018-02-22T02:18:35.123Z,48.65
2018-02-22T02:19:39.327Z,40.42
2018-02-22T02:20:43.778Z,46.55
2018-02-22T02:21:48.414Z,53.15
2018-02-22T02:22:52.684Z,46.65
2018-02-22T02:23:56.957Z,45.90
2018-02-22T02:25:01.932Z,40.25
2018-02-22T02:26:06.123Z,56.58
2018-02-22T02:27:10.325Z,47.20
2018-02-22T02:29:24.241Z,46.50
2018-02-22T02:30:28.460Z,50.75
2018-02-22T02:31:32.657Z,43.65
2018-02-22T02:32:37.627Z,48.15
2018-02-22T02:33:42.266Z,46.47
2018-02-22T02:34:46.733Z,51.30
2018-02-22T02:35:51.910Z,44.75
2018-02-22T02:36:56.129Z,39.22
2018-02-22T02:38:00.329Z,43.65
2018-02-22T02:39:04.552Z,47.08
2018-02-22T02:40:08.745Z,44.38
2018-02-22T02:41:13.549Z,45.25
2018-02-22T02:42:18.930Z,45.78
2018-02-22T02:43:23.411Z,46.22
2018-02-22T02:44:27.626Z,53.50
2018-02-22T02:45:31.820Z,43.58
2018-02-22T02:46:36.802Z,44.80
2018-02-22T02:47:41.003Z,44.63
2018-02-22T02:48:45.817Z,44.53
2018-02-22T02:49:50.122Z,45.33
2018-02-22T02:50:54.441Z,42.45
2018-02-22T02:51:58.632Z,42.75
2018-02-22T02:53:03.585Z,45.00
2018-02-22T02:54:07.839Z,45.65
2018-02-22T02:55:12.781Z,50.55
2018-02-22T02:56:17.371Z,44.25
2018-02-22T02:57:22.491Z,48.30
2018-02-22T02:58:26.708Z,45.95
2018-02-22T02:59:30.926Z,43.13
2018-02-22T03:00:35.156Z,40.85
2018-02-22T03:01:39.351Z,46.75
2018-02-22T03:02:44.044Z,46.45
2018-02-22T03:03:49.023Z,41.95
2018-02-22T03:04:53.350Z,44.55
2018-02-22T03:05:57.616Z,43.05
2018-02-22T03:07:01.809Z,51.40
2018-02-22T03:08:06.000Z,45.38
2018-02-22T03:09:10.211Z,47.85
2018-02-22T03:10:15.460Z,45.40
2018-02-22T03:11:19.908Z,51.47
2018-02-22T03:12:26.428Z,45.17
2018-02-22T03:13:30.647Z,42.50
2018-02-22T03:14:34.861Z,45.15
2018-02-22T03:15:39.048Z,41.75
2018-02-22T03:16:44.745Z,50.15
2018-02-22T03:17:49.178Z,42.47
2018-02-22T03:18:54.240Z,41.63
2018-02-22T03:19:59.190Z,47.22
2018-02-22T03:21:03.376Z,41.03
2018-02-22T03:22:07.585Z,41.83
2018-02-22T03:23:13.873Z,46.37
2018-02-22T03:24:18.378Z,49.00
2018-02-22T03:25:22.711Z,46.03
2018-02-22T03:26:26.943Z,43.05
2018-02-22T03:27:31.132Z,39.35
2018-02-22T03:28:35.321Z,46.75
2018-02-22T03:29:39.513Z,43.30
2018-02-22T03:30:46.167Z,40.55
2018-02-22T03:31:50.716Z,46.25
2018-02-22T03:32:55.035Z,44.90
2018-02-22T03:33:59.222Z,47.65
2018-02-22T03:35:04.222Z,44.72
2018-02-22T03:36:08.422Z,48.95
2018-02-22T03:37:13.153Z,45.12
2018-02-22T03:38:18.634Z,46.45
2018-02-22T03:39:23.098Z,40.58
2018-02-22T03:40:27.352Z,41.92
2018-02-22T03:41:32.311Z,43.47
2018-02-22T03:42:36.516Z,39.45
2018-02-22T03:43:40.727Z,39.15
2018-02-22T03:44:46.208Z,41.80
2018-02-22T03:45:51.423Z,45.47
2018-02-22T03:46:55.654Z,42.62
2018-02-22T03:47:59.848Z,44.97
2018-02-22T03:49:04.040Z,41.45
2018-02-22T03:50:08.256Z,47.22
2018-02-22T03:51:13.664Z,49.70
2018-02-22T03:52:18.644Z,42.80
2018-02-22T03:53:23.192Z,44.45
2018-02-22T03:54:28.207Z,53.35
2018-02-22T03:55:32.379Z,42.70
2018-02-22T03:56:36.616Z,48.42
2018-02-22T03:57:40.804Z,45.08
2018-02-22T03:58:46.509Z,42.40
2018-02-22T03:59:50.902Z,50.78
2018-02-22T04:00:55.906Z,48.25
2018-02-22T04:02:00.136Z,42.22
2018-02-22T04:03:04.324Z,42.13
2018-02-22T04:04:08.511Z,46.37
2018-02-22T04:05:13.983Z,55.50
2018-02-22T04:06:18.466Z,49.75
2018-02-22T04:07:22.751Z,44.50
2018-02-22T04:08:26.935Z,40.47
2018-02-22T04:09:31.122Z,45.78
2018-02-22T04:10:35.307Z,42.10
2018-02-22T04:11:39.495Z,46.00
2018-02-22T04:12:44.402Z,55.12
2018-02-22T04:13:48.869Z,55.30
2018-02-22T04:14:53.160Z,48.08
2018-02-22T04:15:57.369Z,50.22
2018-02-22T04:17:01.559Z,47.78
2018-02-22T04:18:06.012Z,44.80
2018-02-22T04:19:10.221Z,42.35
2018-02-22T04:20:14.748Z,48.08
2018-02-22T04:21:19.180Z,44.70
2018-02-22T04:22:23.743Z,58.65
2018-02-22T04:23:28.712Z,45.83
2018-02-22T04:24:32.900Z,47.10
2018-02-22T04:25:37.103Z,51.25
2018-02-22T04:26:42.409Z,40.70
2018-02-22T04:27:47.304Z,45.45
2018-02-22T04:28:51.532Z,43.60
2018-02-22T04:29:55.734Z,42.83
2018-02-22T04:30:59.924Z,43.60
2018-02-22T04:32:04.137Z,46.95
2018-02-22T04:33:08.322Z,45.83
2018-02-22T04:34:13.537Z,44.60
2018-02-22T04:35:18.520Z,48.30
2018-02-22T04:36:22.757Z,44.03
2018-02-22T04:37:26.954Z,42.78
2018-02-22T04:38:31.135Z,44.95
2018-02-22T04:39:35.353Z,43.50
2018-02-22T04:40:39.551Z,48.60
2018-02-22T04:41:43.812Z,39.10
2018-02-22T04:42:48.025Z,45.08
2018-02-22T04:43:52.228Z,52.22
2018-02-22T04:44:56.451Z,53.17
2018-02-22T04:46:00.648Z,44.78
2018-02-22T04:47:04.896Z,56.30
2018-02-22T04:48:09.107Z,45.20
2018-02-22T04:49:14.076Z,47.03
2018-02-22T04:50:18.284Z,45.03
2018-02-22T04:51:22.498Z,51.20
2018-02-22T04:52:26.747Z,49.75
2018-02-22T04:53:30.931Z,49.85
2018-02-22T04:54:35.129Z,48.17
2018-02-22T04:55:39.311Z,44.60
2018-02-22T04:56:43.667Z,50.22
2018-02-22T04:57:47.956Z,52.03
2018-02-22T04:58:53.074Z,48.15
2018-02-22T04:59:58.957Z,50.50
2018-02-22T05:01:03.198Z,47.95
2018-02-22T05:02:07.395Z,54.33
2018-02-22T05:03:11.607Z,51.60
2018-02-22T05:04:15.810Z,53.53
2018-02-22T05:05:20.009Z,44.35
2018-02-22T05:06:24.256Z,42.03
2018-02-22T05:07:28.583Z,47.35
2018-02-22T05:08:33.531Z,48.40
2018-02-22T05:09:37.728Z,46.22
2018-02-22T05:10:42.705Z,50.12
2018-02-22T05:11:46.964Z,46.15
2018-02-22T05:12:51.962Z,45.47
2018-02-22T05:13:56.177Z,45.35
2018-02-22T05:15:00.368Z,44.42
2018-02-22T05:16:04.551Z,45.63
2018-02-22T05:17:08.771Z,53.13
2018-02-22T05:18:13.173Z,45.38
2018-02-22T05:19:18.780Z,46.90
2018-02-22T05:20:24.400Z,49.42
2018-02-22T05:21:28.591Z,50.53
2018-02-22T05:22:32.785Z,51.17
2018-02-22T05:23:37.298Z,48.67
2018-02-22T05:24:42.249Z,48.97
2018-02-22T05:25:47.593Z,55.65
2018-02-22T05:26:52.338Z,54.88
2018-02-22T05:27:57.319Z,51.22
2018-02-22T05:29:01.507Z,52.67
2018-02-22T05:30:06.506Z,55.33
2018-02-22T05:31:10.696Z,53.13
2018-02-22T05:32:15.311Z,48.65
2018-02-22T05:33:19.760Z,51.50
2018-02-22T05:34:24.048Z,55.50
2018-02-22T05:35:28.242Z,48.10
2018-02-22T05:36:32.427Z,46.25
2018-02-22T05:37:37.380Z,59.00
2018-02-22T05:38:42.384Z,48.42
2018-02-22T05:39:48.358Z,50.65
2018-02-22T05:40:52.656Z,52.08
2018-02-22T05:41:56.864Z,51.15
2018-02-22T05:43:01.046Z,52.47
2018-02-22T05:44:05.299Z,50.45
2018-02-22T05:45:09.497Z,53.17
2018-02-22T05:46:13.893Z,52.00
2018-02-22T05:47:18.322Z,55.05
2018-02-22T05:48:22.873Z,57.95
2018-02-22T05:49:27.191Z,48.50
2018-02-22T05:50:31.401Z,48.75
2018-02-22T05:51:35.588Z,56.20
2018-02-22T05:52:39.778Z,49.55
2018-02-22T05:53:45.203Z,51.83
2018-02-22T05:54:49.701Z,53.50
2018-02-22T05:55:54.026Z,51.88
2018-02-22T05:56:58.250Z,49.92
2018-02-22T05:58:02.435Z,57.65
2018-02-22T05:59:06.621Z,56.95
2018-02-22T06:00:10.877Z,62.40
2018-02-22T06:01:15.270Z,59.33
2018-02-22T06:02:19.710Z,65.55
2018-02-22T06:03:24.749Z,50.15
2018-02-22T06:04:29.708Z,61.65
2018-02-22T06:05:33.926Z,54.30
2018-02-22T06:06:38.117Z,57.13
2018-02-22T06:07:42.604Z,60.33
2018-02-22T06:08:47.093Z,50.88
2018-02-22T06:09:52.186Z,50.33
2018-02-22T06:10:56.417Z,51.55
2018-02-22T06:12:00.653Z,58.13
2018-02-22T06:13:04.848Z,54.50
2018-02-22T06:14:09.075Z,48.08
2018-02-22T06:15:13.429Z,53.08
2018-02-22T06:16:17.707Z,54.78
2018-02-22T06:17:21.922Z,55.85
2018-02-22T06:18:26.118Z,55.17
2018-02-22T06:19:30.317Z,62.62
2018-02-22T06:20:34.574Z,60.22
2018-02-22T06:21:38.795Z,53.05
2018-02-22T06:22:43.791Z,60.83
2018-02-22T06:23:47.998Z,54.13
2018-02-22T06:24:52.223Z,51.85
2018-02-22T06:25:56.505Z,48.60
2018-02-22T06:27:00.711Z,57.17
2018-02-22T06:28:04.939Z,64.03
2018-02-22T06:29:09.152Z,55.88
2018-02-22T06:30:13.716Z,58.13
2018-02-22T06:31:18.015Z,56.97
2018-02-22T06:32:23.070Z,54.28
2018-02-22T06:33:27.317Z,61.58
2018-02-22T06:34:31.673Z,59.30
2018-02-22T06:35:36.620Z,55.55
2018-02-22T06:36:40.835Z,63.45
2018-02-22T06:37:45.406Z,56.83
2018-02-22T06:38:49.869Z,57.00
2018-02-22T06:39:54.173Z,56.08
2018-02-22T06:40:58.416Z,52.55
2018-02-22T06:42:02.622Z,52.78
2018-02-22T06:43:06.835Z,53.25
2018-02-22T06:44:11.062Z,59.03
2018-02-22T06:45:16.479Z,60.67
2018-02-22T06:46:20.792Z,57.55
2018-02-22T06:47:25.179Z,60.83
2018-02-22T06:48:30.150Z,52.62
2018-02-22T06:49:34.345Z,56.85
2018-02-22T06:50:38.574Z,63.22
2018-02-22T06:51:42.954Z,60.15
2018-02-22T06:52:47.674Z,62.20
2018-02-22T06:53:51.975Z,66.57
2018-02-22T06:54:56.211Z,59.97
2018-02-22T06:56:00.409Z,58.75
2018-02-22T06:57:04.609Z,60.45
2018-02-22T06:58:09.653Z,60.72
2018-02-22T06:59:14.074Z,52.95
2018-02-22T07:00:19.108Z,56.65
2018-02-22T07:01:23.425Z,58.85
2018-02-22T07:02:27.657Z,64.57
2018-02-22T07:03:31.899Z,64.43
2018-02-22T07:04:36.099Z,67.90
2018-02-22T07:05:40.292Z,58.70
2018-02-22T07:06:44.975Z,56.88
2018-02-22T07:07:49.306Z,62.47
2018-02-22T07:08:53.642Z,69.70
2018-02-22T07:09:57.859Z,61.72
2018-02-22T07:11:02.040Z,62.13
2018-02-22T07:12:06.250Z,57.97
2018-02-22T07:13:10.473Z,65.37
2018-02-22T07:14:15.408Z,58.15
2018-02-22T07:15:19.805Z,63.67
2018-02-22T07:16:24.213Z,64.53
2018-02-22T07:17:29.407Z,58.80
2018-02-22T07:18:33.649Z,67.62
2018-02-22T07:19:37.861Z,55.30
2018-02-22T07:20:42.189Z,62.80
2018-02-22T07:21:47.121Z,59.30
2018-02-22T07:22:52.037Z,58.70
2018-02-22T07:23:57.084Z,55.60
2018-02-22T07:25:01.267Z,56.88
2018-02-22T07:26:05.497Z,57.08
2018-02-22T07:27:09.791Z,62.60
2018-02-22T07:28:14.489Z,61.40
2018-02-22T07:29:19.052Z,61.00
2018-02-22T07:30:23.430Z,57.50
2018-02-22T07:31:27.675Z,63.90
2018-02-22T07:32:31.921Z,59.67
2018-02-22T07:33:36.129Z,61.17
2018-02-22T07:34:40.353Z,57.78
2018-02-22T07:35:45.267Z,58.38
2018-02-22T07:36:49.561Z,62.53
2018-02-22T07:37:53.945Z,60.78
2018-02-22T07:38:58.154Z,62.47
2018-02-22T07:40:03.155Z,57.80
2018-02-22T07:41:07.355Z,65.07
2018-02-22T07:42:11.574Z,58.20
2018-02-22T07:43:16.208Z,61.88
2018-02-22T07:44:21.779Z,63.13
2018-02-22T07:45:26.364Z,65.80
2018-02-22T07:46:30.568Z,57.30
2018-02-22T07:47:34.778Z,66.78
2018-02-22T07:48:39.016Z,53.95
2018-02-22T07:49:44.469Z,64.40
2018-02-22T07:50:49.123Z,55.80
2018-02-22T07:51:53.509Z,60.17
2018-02-22T07:52:57.744Z,54.70
2018-02-22T07:54:01.943Z,61.97
2018-02-22T07:55:06.175Z,62.17
2018-02-22T07:56:10.359Z,58.28
2018-02-22T07:57:15.307Z,57.90
2018-02-22T07:58:19.766Z,58.03
2018-02-22T07:59:24.814Z,53.80
2018-02-22T08:00:29.791Z,53.55
2018-02-22T08:01:33.980Z,62.90
2018-02-22T08:02:38.174Z,63.90
2018-02-22T08:03:42.625Z,59.42
2018-02-22T08:04:47.517Z,62.00
2018-02-22T08:05:51.791Z,58.03
2018-02-22T08:06:56.049Z,57.28
2018-02-22T08:08:00.245Z,62.40
2018-02-22T08:09:04.488Z,62.13
2018-02-22T08:10:08.686Z,53.72
2018-02-22T08:11:13.470Z,60.28
2018-02-22T08:12:17.898Z,55.65
2018-02-22T08:13:22.188Z,54.08
2018-02-22T08:14:27.333Z,61.35
2018-02-22T08:15:32.324Z,62.17
2018-02-22T08:16:36.559Z,84.47
2018-02-22T08:17:40.790Z,58.55
2018-02-22T08:18:45.258Z,58.60
2018-02-22T08:19:51.099Z,58.17
2018-02-22T08:20:55.528Z,52.80
2018-02-22T08:21:59.715Z,58.75
2018-02-22T08:23:03.983Z,50.78
2018-02-22T08:24:08.980Z,55.15
2018-02-22T08:25:13.384Z,52.88
2018-02-22T08:26:18.908Z,52.10
2018-02-22T08:27:23.366Z,67.90
2018-02-22T08:28:27.718Z,62.70
2018-02-22T08:29:31.910Z,53.38
2018-02-22T08:30:36.855Z,57.60
2018-02-22T08:31:41.186Z,59.55
2018-02-22T08:32:45.735Z,53.50
2018-02-22T08:33:50.831Z,57.72
2018-02-22T08:34:55.096Z,50.58
2018-02-22T08:35:59.273Z,54.45
2018-02-22T08:37:03.530Z,48.58
2018-02-22T08:38:07.748Z,56.10
2018-02-22T08:39:13.850Z,54.05
2018-02-22T08:40:18.358Z,45.67
2018-02-22T08:41:22.692Z,53.40
2018-02-22T08:42:26.929Z,54.53
2018-02-22T08:43:31.253Z,50.40
2018-02-22T08:44:36.272Z,52.00
2018-02-22T08:45:41.366Z,55.28
2018-02-22T08:46:45.990Z,55.80
2018-02-22T08:47:51.119Z,48.87
2018-02-22T08:48:55.502Z,51.67
2018-02-22T08:49:59.748Z,51.92
2018-02-22T08:51:03.950Z,57.30
2018-02-22T08:52:08.147Z,50.28
2018-02-22T08:53:13.408Z,52.50
2018-02-22T08:54:17.788Z,51.22
2018-02-22T08:55:22.210Z,48.97
2018-02-22T08:56:26.440Z,48.67
2018-02-22T08:57:30.629Z,50.50
2018-02-22T08:58:34.835Z,49.63
2018-02-22T08:59:39.030Z,45.38
2018-02-22T09:00:44.346Z,48.10
2018-02-22T09:01:48.854Z,54.15
2018-02-22T09:02:53.221Z,54.83
2018-02-22T09:03:57.432Z,54.53
2018-02-22T09:05:01.610Z,57.47
2018-02-22T09:06:06.560Z,52.35
2018-02-22T09:07:10.740Z,48.22
2018-02-22T09:08:15.575Z,50.00
2018-02-22T09:09:20.004Z,50.17
2018-02-22T09:10:24.544Z,50.60
2018-02-22T09:11:28.927Z,51.05
2018-02-22T09:12:33.955Z,48.83
2018-02-22T09:13:38.895Z,47.95
2018-02-22T09:14:44.293Z,45.10
2018-02-22T09:15:50.386Z,49.15
2018-02-22T09:16:54.635Z,52.35
2018-02-22T09:17:58.846Z,46.20
2018-02-22T09:19:03.035Z,48.55
2018-02-22T09:20:07.274Z,51.27
2018-02-22T09:21:11.574Z,43.75
2018-02-22T09:22:17.407Z,47.35
2018-02-22T09:23:22.442Z,47.55
2018-02-22T09:24:26.689Z,45.17
2018-02-22T09:25:30.918Z,47.17
2018-02-22T09:26:35.103Z,45.67
2018-02-22T09:27:39.288Z,42.53
2018-02-22T09:28:45.661Z,42.83
2018-02-22T09:29:50.050Z,48.72
2018-02-22T09:30:54.355Z,46.40
2018-02-22T09:31:58.547Z,55.60
2018-02-22T09:33:02.780Z,40.80
2018-02-22T09:34:07.769Z,40.85
2018-02-22T09:35:12.283Z,41.67
2018-02-22T09:36:18.386Z,42.15
2018-02-22T09:37:22.725Z,49.08
2018-02-22T09:38:26.915Z,49.00
2018-02-22T09:39:31.104Z,41.37
2018-02-22T09:40:36.120Z,41.30
2018-02-22T09:41:40.329Z,45.80
2018-02-22T09:42:46.122Z,39.47
2018-02-22T09:43:51.377Z,49.25
2018-02-22T09:44:57.153Z,48.38
2018-02-22T09:46:01.394Z,34.80
2018-02-22T09:47:05.593Z,37.08
2018-02-22T09:48:10.555Z,41.25
2018-02-22T09:49:15.681Z,49.60
2018-02-22T09:50:20.126Z,37.70
2018-02-22T09:51:24.895Z,42.95
2018-02-22T09:52:29.849Z,40.75
2018-02-22T09:53:34.049Z,43.90
2018-02-22T09:54:38.230Z,46.53
2018-02-22T09:55:43.192Z,40.03
2018-02-22T09:56:48.622Z,44.45
2018-02-22T09:57:52.885Z,43.65
2018-02-22T09:58:57.150Z,42.30
2018-02-22T10:00:02.118Z,39.40
2018-02-22T10:01:06.343Z,37.88
2018-02-22T10:02:10.637Z,40.25
2018-02-22T10:03:15.441Z,32.38
2018-02-22T10:04:20.964Z,38.65
2018-02-22T10:05:25.252Z,35.50
2018-02-22T10:06:30.950Z,40.13
2018-02-22T10:07:35.206Z,42.15
2018-02-22T10:08:39.470Z,41.63
2018-02-22T10:09:44.889Z,34.13
2018-02-22T10:10:49.641Z,36.25
2018-02-22T10:11:53.963Z,40.35
2018-02-22T10:12:58.218Z,38.50
2018-02-22T10:14:02.424Z,33.65
2018-02-22T10:15:06.609Z,39.60
2018-02-22T10:16:10.822Z,36.03
2018-02-22T10:17:15.672Z,39.42
2018-02-22T10:18:20.012Z,33.22
2018-02-22T10:19:24.528Z,30.37
2018-02-22T10:20:28.748Z,36.90
2018-02-22T10:21:32.946Z,40.53
2018-02-22T10:22:37.886Z,29.90
2018-02-22T10:23:43.247Z,32.13
2018-02-22T10:24:48.555Z,36.17
2018-02-22T10:25:52.871Z,32.20
2018-02-22T10:26:57.116Z,34.40
2018-02-22T10:28:01.306Z,30.87
2018-02-22T10:29:05.572Z,49.00
2018-02-22T10:30:09.764Z,40.40
2018-02-22T10:31:14.351Z,31.62
2018-02-22T10:32:18.758Z,42.58
2018-02-22T10:33:24.037Z,34.25
2018-02-22T10:34:28.307Z,32.60
2018-02-22T10:35:32.545Z,38.20
2018-02-22T10:36:36.727Z,28.53
2018-02-22T10:37:41.392Z,30.57
2018-02-22T10:38:47.025Z,35.30
2018-02-22T10:39:51.396Z,30.00
2018-02-22T10:40:55.734Z,35.38
2018-02-22T10:41:59.916Z,40.08
2018-02-22T10:43:04.876Z,26.73
2018-02-22T10:44:09.073Z,33.23
2018-02-22T10:45:15.072Z,30.62
2018-02-22T10:46:19.463Z,26.77
2018-02-22T10:47:25.302Z,25.20
2018-02-22T10:48:29.500Z,32.63
2018-02-22T10:49:33.719Z,29.10
2018-02-22T10:50:37.939Z,30.53
2018-02-22T10:51:42.484Z,37.17
2018-02-22T10:52:47.732Z,37.25
2018-02-22T10:53:52.981Z,41.22
2018-02-22T10:54:57.211Z,31.00
2018-02-22T10:56:01.526Z,27.42
2018-02-22T10:57:06.435Z,31.97
2018-02-22T10:58:11.487Z,26.43
2018-02-22T10:59:17.258Z,28.00
2018-02-22T11:02:06.129Z,28.08
2018-02-22T11:03:10.315Z,29.45
2018-02-22T11:04:15.069Z,33.17
2018-02-22T11:05:20.245Z,32.03
2018-02-22T11:06:24.660Z,28.43
2018-02-22T11:07:28.895Z,32.80
2018-02-22T11:08:33.084Z,22.10
2018-02-22T11:09:38.074Z,31.17
2018-02-22T11:10:42.452Z,29.90
2018-02-22T11:11:47.478Z,25.37
2018-02-22T11:12:51.823Z,29.63
2018-02-22T11:13:56.068Z,29.48
2018-02-22T11:15:00.267Z,28.90
2018-02-22T11:16:04.478Z,28.10
2018-02-22T11:17:08.740Z,30.97
2018-02-22T11:18:13.152Z,28.63
2018-02-22T11:19:18.537Z,27.95
2018-02-22T11:20:22.791Z,27.75
2018-02-22T11:21:27.014Z,35.25
2018-02-22T11:22:31.201Z,26.20
2018-02-22T11:23:36.206Z,30.33
2018-02-22T11:24:40.392Z,28.47
2018-02-22T11:25:44.879Z,27.85
2018-02-22T11:26:49.215Z,33.67
2018-02-22T11:27:53.456Z,29.83
2018-02-22T11:28:58.488Z,32.20
2018-02-22T11:30:02.727Z,28.83
2018-02-22T11:31:07.696Z,26.77
2018-02-22T11:32:13.188Z,29.13
2018-02-22T11:33:18.867Z,26.95
2018-02-22T11:34:23.673Z,29.13
2018-02-22T11:35:27.898Z,30.65
2018-02-22T11:36:32.071Z,32.13
2018-02-22T11:37:36.245Z,28.57
2018-02-22T11:38:40.421Z,34.60
2018-02-22T11:39:45.470Z,32.07
2018-02-22T11:40:49.816Z,29.47
2018-02-22T11:41:54.432Z,26.35
2018-02-22T11:43:00.153Z,32.47
2018-02-22T11:44:04.403Z,27.87
2018-02-22T11:45:08.634Z,28.23
2018-02-22T11:46:14.317Z,27.50
2018-02-22T11:47:19.876Z,30.37
2018-02-22T11:48:24.139Z,31.83
2018-02-22T11:49:29.120Z,29.05
2018-02-22T11:50:33.358Z,32.75
2018-02-22T11:51:37.545Z,29.95
2018-02-22T11:52:42.242Z,30.62
2018-02-22T11:53:46.714Z,28.07
2018-02-22T11:54:51.729Z,25.45
2018-02-22T11:55:56.098Z,28.90
2018-02-22T11:57:00.289Z,28.08
2018-02-22T11:58:05.236Z,29.40
2018-02-22T11:59:09.435Z,31.57
2018-02-22T12:00:14.717Z,26.75
2018-02-22T12:01:19.817Z,27.40
2018-02-22T12:02:24.127Z,27.02
2018-02-22T12:03:28.326Z,23.73
2018-02-22T12:04:32.530Z,25.07
2018-02-22T12:05:38.169Z,27.83
2018-02-22T12:06:43.047Z,28.73
2018-02-22T12:07:48.207Z,23.70
2018-02-22T12:08:52.582Z,22.87
2018-02-22T12:09:56.799Z,25.57
2018-02-22T12:11:00.995Z,26.12
2018-02-22T12:12:05.244Z,22.30
2018-02-22T12:13:09.431Z,27.20
2018-02-22T12:14:14.436Z,29.07
2018-02-22T12:15:19.434Z,26.50
2018-02-22T12:16:23.696Z,21.27
2018-02-22T12:17:27.962Z,34.03
2018-02-22T12:18:32.150Z,27.37
2018-02-22T12:19:36.360Z,25.10
2018-02-22T12:20:40.582Z,24.20
2018-02-22T12:21:45.047Z,22.47
2018-02-22T12:22:49.300Z,24.98
2018-02-22T12:23:53.735Z,25.40
2018-02-22T12:24:58.707Z,23.90
2018-02-22T12:26:02.911Z,24.75
2018-02-22T12:27:07.156Z,21.70
2018-02-22T12:28:11.535Z,27.50
2018-02-22T12:29:17.117Z,24.23
2018-02-22T12:30:22.855Z,23.83
2018-02-22T12:31:27.898Z,25.70
2018-02-22T12:32:32.138Z,20.83
2018-02-22T12:33:37.081Z,25.27
2018-02-22T12:34:41.260Z,27.70
2018-02-22T12:35:45.898Z,21.00
2018-02-22T12:36:50.802Z,23.10
2018-02-22T12:37:55.105Z,20.03
2018-02-22T12:38:59.290Z,23.70
2018-02-22T12:40:03.522Z,22.42
2018-02-22T12:41:07.729Z,22.57
2018-02-22T12:42:12.039Z,22.67
2018-02-22T12:43:18.196Z,23.03
2018-02-22T12:44:22.444Z,21.97
2018-02-22T12:45:27.396Z,20.97
2018-02-22T12:46:32.351Z,22.03
2018-02-22T12:47:36.567Z,26.55
2018-02-22T12:48:40.818Z,16.50
2018-02-22T12:49:45.303Z,23.90
2018-02-22T12:50:49.649Z,26.87
2018-02-22T12:51:54.929Z,36.83
2018-02-22T12:52:59.128Z,16.90
2018-02-22T12:54:03.328Z,25.42
2018-02-22T12:55:07.518Z,26.85
2018-02-22T12:56:13.138Z,20.95
2018-02-22T12:57:17.721Z,25.50
2018-02-22T12:58:21.982Z,31.00
2018-02-22T12:59:26.271Z,22.97
2018-02-22T13:00:30.480Z,25.43
2018-02-22T13:01:34.695Z,23.92
2018-02-22T13:02:38.881Z,23.30
2018-02-22T13:03:43.617Z,20.27
2018-02-22T13:04:48.410Z,23.37
2018-02-22T13:05:52.706Z,22.42
2018-02-22T13:06:57.666Z,21.73
2018-02-22T13:08:01.872Z,24.60
2018-02-22T13:09:06.076Z,20.35
2018-02-22T13:10:10.251Z,27.13
2018-02-22T13:11:14.694Z,26.02
2018-02-22T13:12:18.977Z,21.23
2018-02-22T13:13:23.337Z,30.83
2018-02-22T13:14:27.599Z,26.57
2018-02-22T13:15:31.794Z,23.07
2018-02-22T13:16:36.047Z,25.10
2018-02-22T13:17:41.020Z,20.98
2018-02-22T13:18:45.628Z,22.43
2018-02-22T13:19:50.748Z,19.20
2018-02-22T13:20:55.027Z,21.80
2018-02-22T13:22:00.048Z,19.73
2018-02-22T13:23:05.004Z,18.10
2018-02-22T13:24:09.993Z,19.30
2018-02-22T13:25:15.748Z,17.17
2018-02-22T13:26:20.052Z,20.40
2018-02-22T13:27:25.509Z,20.23
2018-02-22T13:28:29.729Z,21.92
2018-02-22T13:29:34.671Z,21.00
2018-02-22T13:30:38.847Z,18.53
2018-02-22T13:31:45.726Z,21.33
2018-02-22T13:33:08.603Z,26.15
2018-02-22T13:34:25.591Z,20.77
2018-02-22T13:35:29.791Z,24.10
2018-02-22T13:36:34.022Z,22.67
2018-02-22T13:38:15.749Z,20.45
2018-02-22T13:39:20.458Z,21.30
2018-02-22T13:40:24.723Z,27.07
2018-02-22T13:41:28.907Z,24.10
2018-02-22T13:42:33.103Z,22.43
2018-02-22T13:43:37.349Z,18.05
2018-02-22T13:44:59.546Z,18.37
2018-02-22T13:46:03.732Z,17.70
2018-02-22T13:47:08.704Z,19.60
2018-02-22T13:48:13.057Z,17.00
2018-02-22T13:49:35.082Z,28.95
2018-02-22T13:50:56.866Z,17.30
2018-02-22T13:52:01.052Z,18.83
2018-02-22T13:53:05.256Z,20.58
2018-02-22T13:54:09.505Z,24.77
2018-02-22T13:55:14.235Z,20.65
2018-02-22T13:56:36.178Z,18.98